createdAt,value
2019-03-04T00:02:01.856Z,3.40
2019-03-04T00:04:33.755Z,4.40
2019-03-04T00:07:25.595Z,4.70
2019-03-04T00:09:55.855Z,4.80
2019-03-04T00:12:31.323Z,2.77
2019-03-04T00:15:01.229Z,3.43
2019-03-04T00:17:31.003Z,2.77
2019-03-04T00:20:03.390Z,2.47
2019-03-04T00:22:36.696Z,3.40
2019-03-04T00:25:06.686Z,2.50
2019-03-04T00:27:36.531Z,2.03
2019-03-04T00:30:08.016Z,2.40
2019-03-04T00:32:38.102Z,2.80
2019-03-04T00:35:09.276Z,2.27
2019-03-04T00:37:42.546Z,2.10
2019-03-04T00:40:15.333Z,2.50
2019-03-04T00:42:45.293Z,2.20
2019-03-04T00:45:15.245Z,2.17
2019-03-04T00:47:45.473Z,2.10
2019-03-04T00:50:15.334Z,2.37
2019-03-04T00:52:45.290Z,5.60
2019-03-04T00:55:15.580Z,6.77
2019-03-04T00:57:45.589Z,3.37
2019-03-04T01:00:18.594Z,6.13
2019-03-04T01:02:53.761Z,8.67
2019-03-04T01:05:23.596Z,6.63
2019-03-04T01:07:55.291Z,2.93
2019-03-04T01:10:25.505Z,3.57
2019-03-04T01:12:55.293Z,2.90
2019-03-04T01:15:25.383Z,3.30
2019-03-04T01:17:55.675Z,3.83
2019-03-04T01:20:33.620Z,3.10
2019-03-04T01:23:03.484Z,3.73
2019-03-04T01:25:33.625Z,2.80
2019-03-04T01:28:03.515Z,2.20
2019-03-04T01:30:35.905Z,3.10
2019-03-04T01:33:05.949Z,2.80
2019-03-04T01:35:37.010Z,2.33
2019-03-04T01:38:06.913Z,2.43
2019-03-04T01:40:36.707Z,2.27
2019-03-04T01:43:07.032Z,2.40
2019-03-04T01:45:36.959Z,1.97
2019-03-04T01:48:06.866Z,2.03
2019-03-04T01:50:36.735Z,1.90
2019-03-04T01:53:07.245Z,2.80
2019-03-04T01:55:37.192Z,2.87
2019-03-04T01:58:07.477Z,3.03
2019-03-04T02:00:37.763Z,2.20
2019-03-04T02:03:10.543Z,1.80
2019-03-04T02:05:40.855Z,1.97
2019-03-04T02:08:10.945Z,1.97
2019-03-04T02:10:40.738Z,2.10
2019-03-04T02:13:10.746Z,1.80
2019-03-04T02:15:40.586Z,2.10
2019-03-04T02:18:10.370Z,1.80
2019-03-04T02:20:40.189Z,1.50
2019-03-04T02:23:10.314Z,1.10
2019-03-04T02:26:27.663Z,1.10
2019-03-04T02:28:57.802Z,1.17
2019-03-04T02:31:28.100Z,1.60
2019-03-04T02:33:58.454Z,1.20
2019-03-04T02:36:28.254Z,1.23
2019-03-04T02:38:58.664Z,1.40
2019-03-04T02:41:28.750Z,0.90
2019-03-04T02:43:58.752Z,1.00
2019-03-04T02:46:30.870Z,1.20
2019-03-04T02:49:00.907Z,0.97
2019-03-04T02:51:30.736Z,0.80
2019-03-04T02:54:09.011Z,1.10
2019-03-04T02:56:38.876Z,1.13
2019-03-04T02:59:08.643Z,1.13
2019-03-04T03:01:38.734Z,0.87
2019-03-04T03:04:09.796Z,1.03
2019-03-04T03:06:39.567Z,1.17
2019-03-04T03:09:11.161Z,1.00
2019-03-04T03:11:41.262Z,0.90
2019-03-04T03:14:11.083Z,1.00
2019-03-04T03:16:43.624Z,0.70
2019-03-04T03:19:13.513Z,0.90
2019-03-04T03:21:43.620Z,0.70
2019-03-04T03:24:13.505Z,0.50
2019-03-04T03:26:43.334Z,0.70
2019-03-04T03:29:13.185Z,0.80
2019-03-04T03:31:43.645Z,0.63
2019-03-04T03:34:13.562Z,0.87
2019-03-04T03:36:43.447Z,0.70
2019-03-04T03:39:19.112Z,0.80
2019-03-04T03:41:49.176Z,0.63
2019-03-04T03:44:22.105Z,0.60
2019-03-04T03:46:51.962Z,0.73
2019-03-04T03:49:26.516Z,0.70
2019-03-04T03:51:56.323Z,0.70
2019-03-04T03:54:26.205Z,0.80
2019-03-04T03:56:56.420Z,1.27
2019-03-04T03:59:26.194Z,0.70
2019-03-04T04:01:56.163Z,0.77
2019-03-04T04:04:26.494Z,0.83
2019-03-04T04:06:56.296Z,1.20
2019-03-04T04:09:26.296Z,1.30
2019-03-04T04:11:56.498Z,1.00
2019-03-04T04:14:28.239Z,1.17
2019-03-04T04:16:57.753Z,1.07
2019-03-04T04:19:28.919Z,1.10
2019-03-04T04:21:58.985Z,1.37
2019-03-04T04:24:28.969Z,1.63
2019-03-04T04:27:00.153Z,1.50
2019-03-04T04:29:30.316Z,1.30
2019-03-04T04:32:00.084Z,1.50
2019-03-04T04:34:30.648Z,1.92
2019-03-04T04:37:00.443Z,1.57
2019-03-04T04:39:30.199Z,1.60
2019-03-04T04:42:00.358Z,1.20
2019-03-04T04:44:30.146Z,1.40
2019-03-04T04:47:02.761Z,1.50
2019-03-04T04:49:50.053Z,1.17
2019-03-04T04:52:19.824Z,1.33
2019-03-04T04:54:49.620Z,1.40
2019-03-04T04:57:19.944Z,1.23
2019-03-04T04:59:49.786Z,1.00
2019-03-04T05:02:19.611Z,2.80
2019-03-04T05:04:49.879Z,3.57
2019-03-04T05:07:21.920Z,2.33
2019-03-04T05:09:52.163Z,1.60
2019-03-04T05:12:22.530Z,1.67
2019-03-04T05:14:52.314Z,2.40
2019-03-04T05:17:22.078Z,1.83
2019-03-04T05:19:53.485Z,1.10
2019-03-04T05:22:23.304Z,1.50
2019-03-04T05:24:53.130Z,2.73
2019-03-04T05:27:23.250Z,1.17
2019-03-04T05:29:53.624Z,3.80
2019-03-04T05:32:23.411Z,4.87
2019-03-04T05:34:53.253Z,3.17
2019-03-04T05:37:23.105Z,2.67
2019-03-04T05:39:53.442Z,1.20
2019-03-04T05:42:24.601Z,3.20
2019-03-04T05:44:54.644Z,3.60
2019-03-04T05:47:24.633Z,2.70
2019-03-04T05:49:54.525Z,2.70
2019-03-04T05:52:25.363Z,2.43
2019-03-04T05:54:55.521Z,3.07
2019-03-04T05:57:25.335Z,2.23
2019-03-04T05:59:55.123Z,1.37
2019-03-04T06:02:25.130Z,0.80
2019-03-04T06:04:58.423Z,1.30
2019-03-04T06:07:53.730Z,1.00
2019-03-04T06:10:24.785Z,0.87
2019-03-04T06:12:55.177Z,1.20
2019-03-04T06:15:28.919Z,0.70
2019-03-04T06:18:00.569Z,0.53
2019-03-04T06:20:31.920Z,0.70
2019-03-04T06:23:02.079Z,0.70
2019-03-04T06:25:32.991Z,0.80
2019-03-04T06:28:02.965Z,0.97
2019-03-04T06:30:33.294Z,1.50
2019-03-04T06:33:03.330Z,0.80
2019-03-04T06:35:33.625Z,1.10
2019-03-04T06:38:03.779Z,0.73
2019-03-04T06:40:33.776Z,0.90
2019-03-04T06:43:03.632Z,1.40
2019-03-04T06:45:33.611Z,0.93
2019-03-04T06:48:04.520Z,0.80
2019-03-04T06:50:50.311Z,0.60
2019-03-04T06:53:51.296Z,0.73
2019-03-04T06:56:36.964Z,0.50
2019-03-04T06:59:15.065Z,0.70
2019-03-04T07:01:49.688Z,0.70
2019-03-04T07:04:49.253Z,0.40
2019-03-04T07:07:19.734Z,0.47
2019-03-04T07:09:49.882Z,0.40
2019-03-04T07:12:19.760Z,0.30
2019-03-04T07:14:49.706Z,0.30
2019-03-04T07:17:23.620Z,0.60
2019-03-04T07:20:05.377Z,1.00
2019-03-04T07:22:38.437Z,0.40
2019-03-04T07:25:09.169Z,0.80
2019-03-04T07:27:39.225Z,0.67
2019-03-04T07:30:11.022Z,0.60
2019-03-04T07:32:41.164Z,0.70
2019-03-04T07:35:11.220Z,1.00
2019-03-04T07:37:41.088Z,0.60
2019-03-04T07:40:12.129Z,0.60
2019-03-04T07:42:41.942Z,0.70
2019-03-04T07:45:12.607Z,0.80
2019-03-04T07:47:42.478Z,0.73
2019-03-04T07:50:14.328Z,0.90
2019-03-04T07:52:44.173Z,0.70
2019-03-04T07:55:15.579Z,1.00
2019-03-04T07:57:45.479Z,0.97
2019-03-04T08:00:15.288Z,0.87
2019-03-04T08:02:47.402Z,0.93
2019-03-04T08:05:20.085Z,1.07
2019-03-04T08:07:51.875Z,1.43
2019-03-04T08:11:12.798Z,1.10
2019-03-04T08:13:50.279Z,0.70
2019-03-04T08:16:20.255Z,0.70
2019-03-04T08:18:51.445Z,0.73
2019-03-04T08:21:27.658Z,0.80
2019-03-04T08:23:57.527Z,0.67
2019-03-04T08:26:27.389Z,1.00
2019-03-04T08:28:58.743Z,0.60
2019-03-04T08:31:28.990Z,0.70
2019-03-04T08:34:02.717Z,0.80
2019-03-04T08:36:32.860Z,0.77
2019-03-04T08:39:02.710Z,0.43
2019-03-04T08:41:33.810Z,0.70
2019-03-04T08:44:07.762Z,0.90
2019-03-04T08:46:38.899Z,1.90
2019-03-04T08:49:08.976Z,1.20
2019-03-04T08:51:51.251Z,2.60
2019-03-04T08:54:21.238Z,0.93
2019-03-04T08:56:51.109Z,1.20
2019-03-04T08:59:23.010Z,1.33
2019-03-04T09:01:59.375Z,1.20
2019-03-04T09:04:27.996Z,1.13
2019-03-04T09:06:59.873Z,0.93
2019-03-04T09:09:31.250Z,1.20
2019-03-04T09:12:01.233Z,2.10
2019-03-04T09:14:43.890Z,1.20
2019-03-04T09:17:17.577Z,0.67
2019-03-04T09:19:48.079Z,0.83
2019-03-04T09:22:18.424Z,0.80
2019-03-04T09:24:48.329Z,0.80
2019-03-04T09:27:18.829Z,1.00
2019-03-04T09:29:50.195Z,0.87
2019-03-04T09:32:32.705Z,0.90
2019-03-04T09:35:01.565Z,0.60
2019-03-04T09:37:32.508Z,1.47
2019-03-04T09:40:06.261Z,0.80
2019-03-04T09:42:36.420Z,1.00
2019-03-04T09:45:11.625Z,0.80
2019-03-04T09:47:43.164Z,1.13
2019-03-04T09:50:19.321Z,1.10
2019-03-04T09:52:52.444Z,1.13
2019-03-04T09:55:33.215Z,1.10
2019-03-04T09:58:05.170Z,1.50
2019-03-04T10:00:51.742Z,1.03
2019-03-04T10:03:43.705Z,1.03
2019-03-04T10:06:44.629Z,0.90
2019-03-04T10:09:46.363Z,1.00
2019-03-04T10:13:01.329Z,1.37
2019-03-04T10:16:22.595Z,1.50
2019-03-04T10:19:44.025Z,1.27
2019-03-04T10:22:58.555Z,1.70
2019-03-04T10:26:09.444Z,1.50
2019-03-04T10:29:22.608Z,1.60
2019-03-04T10:32:39.648Z,1.20
2019-03-04T10:35:46.961Z,1.20
2019-03-04T10:38:42.927Z,1.20
2019-03-04T10:42:05.841Z,0.83
2019-03-04T10:45:10.788Z,1.00
2019-03-04T10:47:52.335Z,1.70
2019-03-04T10:50:29.809Z,1.27
2019-03-04T10:53:06.396Z,1.03
2019-03-04T10:56:07.738Z,1.20
2019-03-04T10:58:39.051Z,1.20
2019-03-04T11:01:11.555Z,1.40
2019-03-04T11:03:56.053Z,1.37
2019-03-04T11:09:28.398Z,1.90
2019-03-04T11:12:03.708Z,0.60
2019-03-04T11:14:37.303Z,9.93
2019-03-04T11:17:34.296Z,1.83
2019-03-04T11:19:49.003Z,2.10
2019-03-04T11:22:31.407Z,3.70
2019-03-04T11:25:02.528Z,4.63
2019-03-04T11:27:43.440Z,6.27
2019-03-04T11:30:22.004Z,5.17
2019-03-04T11:33:02.821Z,14.57
2019-03-04T11:35:41.503Z,6.83
2019-03-04T11:38:48.089Z,4.27
2019-03-04T11:41:46.720Z,3.60
2019-03-04T11:44:21.260Z,2.10
2019-03-04T11:46:54.762Z,1.90
2019-03-04T11:49:34.454Z,2.10
2019-03-04T11:52:08.390Z,2.93
2019-03-04T11:54:40.387Z,1.10
2019-03-04T11:57:14.353Z,1.70
2019-03-04T11:59:48.921Z,1.40
2019-03-04T12:02:38.594Z,0.93
2019-03-04T12:05:04.741Z,1.20
2019-03-04T12:07:34.942Z,1.10
2019-03-04T12:10:12.549Z,0.93
2019-03-04T12:12:42.857Z,3.67
2019-03-04T12:15:23.484Z,0.97
2019-03-04T12:18:02.446Z,0.70
2019-03-04T12:20:40.231Z,0.77
2019-03-04T12:23:13.528Z,1.03
2019-03-04T12:25:49.663Z,0.83
2019-03-04T12:28:22.570Z,0.90
2019-03-04T12:30:56.907Z,0.90
2019-03-04T12:33:42.188Z,1.00
2019-03-04T12:36:14.947Z,1.07
2019-03-04T12:38:52.464Z,1.20
2019-03-04T12:41:25.731Z,1.30
2019-03-04T12:44:07.406Z,1.70
2019-03-04T12:46:44.344Z,1.47
2019-03-04T12:49:20.414Z,1.50
2019-03-04T12:52:18.747Z,1.27
2019-03-04T12:54:57.338Z,1.23
2019-03-04T12:57:34.502Z,1.03
2019-03-04T13:00:33.830Z,1.50
2019-03-04T13:03:07.805Z,1.23
2019-03-04T13:05:46.419Z,1.20
2019-03-04T13:08:25.925Z,1.13
2019-03-04T13:11:06.071Z,1.20
2019-03-04T13:13:41.224Z,1.20
2019-03-04T13:16:15.003Z,1.27
2019-03-04T13:18:59.722Z,1.27
2019-03-04T13:21:30.350Z,1.70
2019-03-04T13:24:07.319Z,1.83
2019-03-04T13:26:41.700Z,1.80
2019-03-04T13:29:14.245Z,1.50
2019-03-04T13:31:46.494Z,1.73
2019-03-04T13:34:21.710Z,1.47
2019-03-04T13:36:53.169Z,1.40
2019-03-04T13:39:26.624Z,1.50
2019-03-04T13:42:02.520Z,6.30
2019-03-04T13:44:50.335Z,5.67
2019-03-04T13:47:27.626Z,7.70
2019-03-04T13:50:12.501Z,2.90
2019-03-04T13:55:47.585Z,3.53
2019-03-04T13:58:22.843Z,1.47
2019-03-04T14:04:06.408Z,2.33
2019-03-04T14:07:06.123Z,2.43
2019-03-04T14:10:08.582Z,1.40
2019-03-04T14:12:42.436Z,1.47
2019-03-04T14:15:38.334Z,2.43
2019-03-04T14:18:27.208Z,1.70
2019-03-04T14:21:15.130Z,1.30
2019-03-04T14:26:39.989Z,2.30
2019-03-04T14:29:12.015Z,2.10
2019-03-04T14:31:47.089Z,1.57
2019-03-04T14:34:20.646Z,1.40
2019-03-04T14:36:59.346Z,1.33
2019-03-04T14:39:40.086Z,1.47
2019-03-04T14:42:18.358Z,1.13
2019-03-04T14:44:49.187Z,1.30
2019-03-04T14:47:31.109Z,1.10
2019-03-04T14:50:14.571Z,1.17
2019-03-04T14:52:47.043Z,1.23
2019-03-04T14:55:20.877Z,0.73
2019-03-04T14:58:14.626Z,1.27
2019-03-04T15:00:51.719Z,1.17
2019-03-04T15:03:24.599Z,0.90
2019-03-04T15:06:17.177Z,1.20
2019-03-04T15:08:48.628Z,1.00
2019-03-04T15:11:26.834Z,0.97
2019-03-04T15:14:01.555Z,1.17
2019-03-04T15:16:32.083Z,1.20
2019-03-04T15:19:11.289Z,1.20
2019-03-04T15:21:42.173Z,1.10
2019-03-04T15:24:24.532Z,1.57
2019-03-04T15:27:09.739Z,1.10
2019-03-04T15:29:42.559Z,1.10
2019-03-04T15:32:13.169Z,1.40
2019-03-04T15:34:57.429Z,1.10
2019-03-04T15:37:27.480Z,1.33
2019-03-04T15:39:58.035Z,1.17
2019-03-04T15:42:42.644Z,1.43
2019-03-04T15:45:12.940Z,1.00
2019-03-04T15:47:53.919Z,1.47
2019-03-04T15:50:26.837Z,1.07
2019-03-04T15:53:01.094Z,0.93
2019-03-04T15:55:31.728Z,1.20
2019-03-04T15:58:02.216Z,1.40
2019-03-04T16:00:37.149Z,1.43
2019-03-04T16:03:13.613Z,1.13
2019-03-04T16:06:04.374Z,1.23
2019-03-04T16:08:37.155Z,1.33
2019-03-04T16:11:09.331Z,1.00
2019-03-04T16:13:40.139Z,8.67
2019-03-04T16:16:13.948Z,2.07
2019-03-04T16:18:44.005Z,0.90
